Holmen, Wisconsin
Current Conditions -  °F | °C
As of 5:53 AM on Thursday 29 Jan 2015 (Local Time) from KLSE Reporting Station
Overcast Overcast  
Wind Chill: 25°   Ceiling: 1400
Heat Index: 33°   Visibility: 7mi
Dew Point: 28°   Wind: 10mph
Humidity: 82%   Direction: 320°NW
Pressure: 29.91"   Gusts: NA
Location:  43.96°N, 91.26°W
Report Text: KLSE 291153Z 32009KT 7SM OVC014 01/M02 A2991 RMK AO2 SLP139 T00061022 10006 20000 53021
Loading
Personal Weather Stations






























Interactive Weather Map New forecast layout! Learn more

10-Day Weather Forecast

Advertisements
Track Severe Weather on mobile